Deelen, Nederland

1:33 PM CEST op 02 september 2014 (GMT +0200)
Plattenburg | Change Station
CLOSE
Current Station
Persoonlijk weerstation
Location: Arnhem, GELDERLAND
Geometrische hoogte: 59 ft
Nabije weerstations

Hoogte 59 ft 51.99 °N, 5.94 °E | Updated 12 minutes ago

Overcast
Geheel bewolkt
66.7 °F
Voelt als 66.7 °F
N
-
Wind Variabel Wind van noord

Vandaag
Hoog -- | Laag -- °F
--% Kans op neerslag
Gisteren
Hoog -- | Laag -- °F
Precip. -- inches
6:49 AM 8:21 PM
Wassende halvemaan, 50% visible
Druk 30.21 inches
Zicht 6.2 mijlen
Wolken Licht bewolkt 2200 ft
Geheel bewolkt 2600 ft
Dauwpunt 54 °F
Vochtigheid 69%
Neerslag -999.00 inches
Dikte sneeuw Niet beschikbaar.
UV 2 van de 12
Pollen Niet beschikbaar.
Luchtkwaliteit Niet beschikbaar.
Flu Activity Niet beschikbaar.
METAR EHDL 021125Z AUTO 33004KT 9999 SCT022 OVC026 20/14 Q1023 WHT

More Conditions Fewer Conditions

Druk 30.21 inches
Zicht 6.2 mijlen
Wolken Licht bewolkt 2200 ft
Geheel bewolkt 2600 ft
Dauwpunt 54 °F
Vochtigheid 69%
Neerslag -999.00 inches
Dikte sneeuw Niet beschikbaar.
UV 2 van de 12
Pollen Niet beschikbaar.
Luchtkwaliteit Niet beschikbaar.
Flu Activity Niet beschikbaar.
METAR EHDL 021125Z AUTO 33004KT 9999 SCT022 OVC026 20/14 Q1023 WHT

More Conditions Fewer Conditions

10-Day Weather Forecast

Almanac

Astronomie

Sep. 02, 2014 Opkomst Ondergang
Werkelijke tijd 6:49 AM CEST 8:21 PM CEST
Burgerlijke schemering 6:14 AM CEST 8:57 PM CEST
Nautische schemering 5:30 AM CEST 9:40 PM CEST
Astronomische schemering 4:42 AM CEST 10:27 PM CEST
Maan 3:10 PM CEST Geen maanondergang
Golflengte van het zichtbare licht 14h 42m
Daglengte
13h 32m
Tomorrow will be 3m 55s shorter.
Wassende halvemaan, 50% of the Moon is Illuminated
Vandaag
Wassende halvemaan
sep 8
Volle maan
sep 15
Laatste kwartier
sep 24
Nieuw
oktober 1
Eerste kwartier

Extremen gisteren

Country Highs Country Lows

Community

WunderPhotos

Upload Photos

1,749,621 foto’s ge-upload!

WunderBlogs® & News

By Dr. Jeff Masters
Director of Meteorology, Weather Underground
By Kari Strenfel
Meteorologist, Weather Underground
By Christopher C. Burt
Weather Historian, Weather Underground
September 2, 2014
September 2, 2014
September 2, 2014

Nearby

Luchtkwaliteit

Not available.

Dikte sneeuw

Not available.

Aardbevingen

Stad Distance Mag. Time & Date
No recent earthquake activity has been reported nearby.
Minimum magnitude displayed is 2.5.

Watertemperatuur langs de kust

Plaats Temperatuur
Geen meldingen van stations

Nabije weerstations